METAR AND TAF INFORMATION
METAR FOR FYGB
ADDS - METARS form results

(0616 UTC 26 June 2019)
Data provider http://aviationweather.gov/metar/data/
 
METAR text: FYGB 260600Z AUTO 04001KT //// // ////// 05/M04 Q1025
Conditions at: FYGB (GOBABIS ARPT , NA) observed 0600 UTC 26 June 2019
Temperature: 5.0°C (41°F)
Dewpoint: -4.0°C (25°F) [RH = 52%]
Pressure (altimeter): 30.27 inches Hg (1025.0 mb)
Winds: from the NE (40 degrees) at 1 MPH (1 knots; 0.5 m/s)
Visibility: missing
Ceiling: unknown
Clouds: missing
Weather: no significant weather observed at this time

 AIRPORT MAP

 RUNWAY INFORMATION

 AIRPORT FREQUENCIES

 AIRPORT NEAR NAVIGATION AIDS



The South Africal Virtual Air Force